Time;durP1;ratioP1;P1;durP2;ratioP2;P2;SDS_P1;SDS_P2;PMS_P1;PMS_P2;Temp;Humidity;BMP_temperature;BMP_pressure;BME280_temperature;BME280_humidity;BME280_pressure;Samples;Min_cycle;Max_cycle;Signal;HPM_P1;HPM_P2
2024/04/24 00:04:48;;;;;;;11.80;10.30;;;8.30;36.50;;;;;;11150154;26;20373;-71
2024/04/24 00:09:52;;;;;;;12.33;11.23;;;8.30;36.80;;;;;;11151482;26;20311;-71
2024/04/24 00:14:57;;;;;;;10.43;9.53;;;8.30;36.50;;;;;;11147505;26;21451;-71
2024/04/24 00:20:05;;;;;;;11.17;10.07;;;8.30;36.50;;;;;;11149215;26;20300;-70
2024/04/24 00:25:10;;;;;;;11.30;10.20;;;8.20;36.90;;;;;;11147615;26;20262;-71
2024/04/24 00:30:15;;;;;;;11.10;10.10;;;8.20;36.60;;;;;;11162529;26;20304;-71
2024/04/24 00:35:23;;;;;;;11.33;10.33;;;8.20;36.60;;;;;;11158809;26;20273;-71
2024/04/24 00:40:28;;;;;;;11.03;9.90;;;8.20;37.00;;;;;;11155696;26;20288;-71
2024/04/24 00:45:33;;;;;;;11.00;10.00;;;8.10;36.70;;;;;;11154404;26;20313;-71
2024/04/24 00:50:42;;;;;;;10.60;9.60;;;8.10;36.70;;;;;;11157508;26;20314;-71
2024/04/24 00:55:48;;;;;;;10.97;9.97;;;8.20;37.30;;;;;;11156036;26;20264;-71
2024/04/24 01:00:54;;;;;;;11.17;10.10;;;8.10;36.90;;;;;;11153809;26;20255;-71
2024/04/24 01:06:01;;;;;;;10.37;9.37;;;8.10;36.90;;;;;;11151235;26;20301;-71
2024/04/24 01:11:06;;;;;;;11.20;10.20;;;8.10;37.30;;;;;;11157429;26;20755;-71
2024/04/24 01:16:17;;;;;;;11.33;10.33;;;8.10;37.00;;;;;;11150627;26;20266;-71
2024/04/24 01:21:29;;;;;;;11.77;10.57;;;8.10;37.40;;;;;;11153995;26;20252;-71
2024/04/24 01:26:45;;;;;;;10.13;9.13;;;8.10;37.50;;;;;;11152147;26;20258;-70
2024/04/24 01:31:50;;;;;;;11.10;10.00;;;8.10;37.90;;;;;;11150246;26;20267;-71
2024/04/24 01:36:55;;;;;;;11.23;10.23;;;8.10;37.10;;;;;;11151217;26;20251;-71
2024/04/24 01:42:02;;;;;;;10.73;9.70;;;8.10;37.10;;;;;;11154186;26;20257;-71
2024/04/24 01:47:07;;;;;;;11.50;10.30;;;8.00;37.40;;;;;;11149238;26;20306;-71
2024/04/24 01:52:12;;;;;;;11.03;10.07;;;8.00;37.20;;;;;;11154662;26;20356;-71
2024/04/24 01:57:20;;;;;;;10.60;9.70;;;8.00;37.20;;;;;;11158030;26;20779;-70
2024/04/24 02:02:25;;;;;;;10.93;9.93;;;8.00;37.50;;;;;;11152740;26;20587;-71
2024/04/24 02:07:30;;;;;;;10.03;9.17;;;8.10;37.20;;;;;;11147768;26;20405;-71
2024/04/24 02:12:37;;;;;;;10.33;9.43;;;8.10;37.20;;;;;;11155127;26;20303;-71
2024/04/24 02:17:42;;;;;;;10.00;9.13;;;8.20;37.50;;;;;;11156831;26;20651;-70
2024/04/24 02:22:47;;;;;;;10.07;9.17;;;8.20;37.20;;;;;;11149729;26;20302;-71
2024/04/24 02:27:55;;;;;;;9.17;8.27;;;8.20;37.10;;;;;;11158750;26;20376;-71
2024/04/24 02:33:00;;;;;;;9.90;9.10;;;8.20;37.40;;;;;;11138869;26;20284;-71
2024/04/24 02:38:05;;;;;;;9.33;8.53;;;8.20;37.00;;;;;;11154619;26;20255;-71
2024/04/24 02:43:13;;;;;;;10.43;9.53;;;8.20;37.00;;;;;;11143323;26;20254;-71
2024/04/24 02:48:18;;;;;;;10.97;10.07;;;8.20;37.30;;;;;;11146958;26;20903;-71
2024/04/24 02:53:23;;;;;;;10.47;9.57;;;8.20;37.10;;;;;;11161823;26;20364;-71
2024/04/24 02:58:31;;;;;;;10.83;9.73;;;8.30;37.10;;;;;;11161125;26;20341;-71
2024/04/24 03:03:36;;;;;;;10.30;9.40;;;8.30;37.20;;;;;;11153257;26;20305;-71
2024/04/24 03:08:41;;;;;;;10.03;9.20;;;8.30;36.80;;;;;;11155395;26;20259;-71
2024/04/24 03:13:49;;;;;;;11.27;10.27;;;8.40;36.90;;;;;;11151327;26;20259;-71
2024/04/24 03:18:54;;;;;;;10.53;9.63;;;8.30;37.20;;;;;;11152398;26;21011;-71
2024/04/24 03:23:59;;;;;;;10.93;9.83;;;8.30;36.90;;;;;;11156415;26;20258;-71
2024/04/24 03:29:07;;;;;;;11.90;10.80;;;8.40;37.00;;;;;;11156395;26;20797;-71
2024/04/24 03:34:12;;;;;;;10.50;9.60;;;8.40;37.20;;;;;;11136050;26;20274;-71
2024/04/24 03:39:17;;;;;;;10.87;9.77;;;8.40;36.80;;;;;;11157111;26;20255;-71
2024/04/24 03:44:24;;;;;;;10.53;9.63;;;8.30;36.70;;;;;;11156923;26;20642;-71
2024/04/24 03:49:29;;;;;;;10.87;9.93;;;8.30;37.20;;;;;;11151632;26;20374;-71
2024/04/24 03:54:34;;;;;;;10.70;9.77;;;8.20;36.90;;;;;;11140512;26;20624;-71
2024/04/24 03:59:42;;;;;;;10.70;9.70;;;8.20;37.10;;;;;;11156208;26;20310;-71
2024/04/24 04:04:47;;;;;;;10.50;9.50;;;8.20;37.30;;;;;;11146647;26;20263;-71
2024/04/24 04:09:52;;;;;;;9.80;8.93;;;8.20;37.00;;;;;;11157713;26;20295;-71
2024/04/24 04:15:00;;;;;;;10.33;9.43;;;8.20;36.90;;;;;;11151681;26;20294;-71
2024/04/24 04:20:05;;;;;;;9.93;9.03;;;8.20;37.20;;;;;;11157601;26;20323;-71
2024/04/24 04:25:11;;;;;;;10.80;9.80;;;8.20;36.90;;;;;;11160642;26;20265;-70
2024/04/24 04:30:18;;;;;;;10.87;9.80;;;8.10;36.90;;;;;;11152812;26;20308;-71
2024/04/24 04:35:23;;;;;;;10.37;9.47;;;8.10;37.20;;;;;;11144844;26;20296;-71
2024/04/24 04:40:28;;;;;;;10.93;9.97;;;8.00;36.90;;;;;;11129971;26;20310;-71
2024/04/24 04:45:36;;;;;;;9.97;9.07;;;8.00;37.00;;;;;;11140964;26;20313;-71
2024/04/24 04:50:41;;;;;;;10.33;9.33;;;8.00;37.40;;;;;;11136592;26;20258;-71
2024/04/24 04:55:47;;;;;;;11.57;10.47;;;8.00;37.20;;;;;;11152867;26;20268;-71
2024/04/24 05:00:54;;;;;;;10.67;9.70;;;7.90;37.10;;;;;;11162943;26;20300;-71
2024/04/24 05:05:59;;;;;;;9.60;8.77;;;7.90;37.40;;;;;;11159361;26;20351;-70
2024/04/24 05:11:04;;;;;;;9.70;8.80;;;7.80;37.20;;;;;;11144457;26;20262;-70
2024/04/24 05:16:14;;;;;;;10.70;9.70;;;7.80;37.10;;;;;;11154191;26;20394;-71
2024/04/24 05:21:19;;;;;;;10.50;9.57;;;7.80;37.50;;;;;;11160380;26;20262;-70
2024/04/24 05:31:49;;;;;;;10.00;9.10;;;7.80;37.10;;;;;;11153466;26;20683;-70
2024/04/24 05:36:54;;;;;;;10.80;9.80;;;7.80;37.20;;;;;;11150934;26;20270;-71
2024/04/24 05:41:59;;;;;;;9.10;8.30;;;7.80;37.80;;;;;;11152214;26;20304;-70
2024/04/24 05:47:07;;;;;;;9.87;8.87;;;7.80;37.10;;;;;;11151079;26;20326;-70
2024/04/24 05:52:12;;;;;;;9.43;8.53;;;7.80;37.30;;;;;;11123056;26;20371;-70
2024/04/24 05:57:17;;;;;;;9.50;8.60;;;7.90;37.30;;;;;;11155991;26;20983;-71
2024/04/24 06:02:25;;;;;;;9.00;8.27;;;7.90;37.20;;;;;;11154702;26;20263;-71
2024/04/24 06:07:30;;;;;;;8.63;7.83;;;8.00;37.30;;;;;;11155303;26;20266;-71
2024/04/24 06:12:35;;;;;;;9.57;8.60;;;8.00;37.00;;;;;;11164144;26;20258;-71
2024/04/24 06:17:43;;;;;;;8.80;7.97;;;8.10;37.10;;;;;;11149290;26;20263;-71
2024/04/24 06:22:48;;;;;;;9.40;8.50;;;8.20;37.00;;;;;;11145627;26;20262;-70
2024/04/24 06:27:53;;;;;;;9.17;8.37;;;8.20;36.90;;;;;;11153685;26;20367;-71
2024/04/24 06:33:04;;;;;;;8.87;8.07;;;8.30;36.90;;;;;;11151356;26;20624;-71
2024/04/24 06:38:10;;;;;;;9.83;8.87;;;8.50;37.00;;;;;;11158506;26;20757;-71
2024/04/24 06:43:15;;;;;;;8.10;7.43;;;8.50;36.70;;;;;;11152620;26;20668;-71
2024/04/24 06:48:23;;;;;;;9.07;8.27;;;8.60;36.80;;;;;;11160902;26;20285;-70
2024/04/24 06:53:28;;;;;;;9.40;8.50;;;8.70;36.70;;;;;;11151475;26;20266;-71
2024/04/24 06:58:34;;;;;;;9.30;8.40;;;8.80;36.80;;;;;;11151329;26;20267;-71
2024/04/24 07:03:42;;;;;;;8.37;7.67;;;8.80;36.90;;;;;;11150365;26;20310;-71
2024/04/24 07:08:47;;;;;;;7.93;7.23;;;8.90;37.00;;;;;;11155075;26;20726;-71
2024/04/24 07:13:52;;;;;;;7.63;6.93;;;9.10;36.60;;;;;;11142905;26;20863;-71
2024/04/24 07:18:59;;;;;;;7.13;6.57;;;9.20;36.30;;;;;;11151235;26;20262;-70
2024/04/24 07:24:05;;;;;;;6.53;5.93;;;9.30;36.00;;;;;;11142135;26;20275;-71
2024/04/24 07:29:10;;;;;;;6.90;6.27;;;9.50;36.00;;;;;;11148277;26;20344;-71
2024/04/24 07:34:18;;;;;;;6.70;6.10;;;9.60;35.90;;;;;;11141978;26;20259;-70
2024/04/24 07:39:23;;;;;;;5.97;5.50;;;9.80;35.40;;;;;;11126243;26;20266;-71
2024/04/24 07:44:28;;;;;;;6.50;5.50;;;10.00;34.50;;;;;;11146512;26;20266;-70
2024/04/24 07:49:36;;;;;;;7.10;5.90;;;10.20;34.00;;;;;;11141073;26;20260;-71
2024/04/24 07:54:42;;;;;;;5.43;5.03;;;10.40;33.00;;;;;;11144134;26;20305;-71
2024/04/24 07:59:47;;;;;;;5.30;4.90;;;10.50;33.80;;;;;;11147879;26;20290;-70
2024/04/24 08:04:54;;;;;;;4.73;4.37;;;10.70;33.90;;;;;;11137817;26;20298;-70
2024/04/24 08:09:59;;;;;;;4.73;4.27;;;11.00;32.20;;;;;;11137635;26;20247;-70
2024/04/24 08:15:05;;;;;;;5.27;4.57;;;11.20;32.90;;;;;;11149566;26;20254;-70
2024/04/24 08:20:14;;;;;;;5.37;4.90;;;11.40;32.40;;;;;;11139387;26;20267;-71
2024/04/24 08:25:19;;;;;;;4.60;4.20;;;11.60;31.20;;;;;;11155190;26;20696;-71
2024/04/24 08:30:25;;;;;;;5.40;4.90;;;11.80;32.20;;;;;;11161346;26;20258;-71
2024/04/24 08:35:34;;;;;;;5.00;4.60;;;12.00;31.50;;;;;;11153094;26;20372;-71
2024/04/24 08:40:39;;;;;;;5.67;4.90;;;12.00;30.30;;;;;;11156988;26;20252;-71
2024/04/24 08:45:45;;;;;;;5.00;4.53;;;12.10;29.70;;;;;;11153923;26;20306;-70
2024/04/24 08:50:54;;;;;;;5.40;4.50;;;12.10;29.70;;;;;;11158516;26;20267;-71
2024/04/24 08:56:01;;;;;;;5.37;4.97;;;12.10;29.60;;;;;;11162369;26;20300;-71
2024/04/24 09:01:10;;;;;;;4.83;4.47;;;12.10;28.80;;;;;;11163735;26;20263;-71
2024/04/24 09:06:19;;;;;;;5.13;4.63;;;12.30;29.40;;;;;;11138674;26;20648;-70
2024/04/24 09:11:25;;;;;;;5.07;4.67;;;12.40;27.70;;;;;;11154383;26;20927;-70
2024/04/24 09:16:36;;;;;;;5.33;4.67;;;12.60;29.80;;;;;;11154144;26;20609;-71
2024/04/24 09:21:46;;;;;;;5.70;5.10;;;12.70;28.50;;;;;;11158514;26;20302;-71
2024/04/24 09:26:54;;;;;;;5.27;4.87;;;12.70;28.60;;;;;;11140459;26;20289;-71
2024/04/24 09:31:59;;;;;;;4.90;4.50;;;12.60;27.90;;;;;;11158549;26;20269;-71
2024/04/24 09:37:07;;;;;;;5.77;5.17;;;12.40;29.10;;;;;;11146772;26;20309;-71
2024/04/24 09:42:13;;;;;;;5.10;4.70;;;12.30;28.40;;;;;;11160019;26;20969;-71
2024/04/24 09:47:19;;;;;;;5.60;5.00;;;12.30;29.20;;;;;;11153565;26;20308;-70
2024/04/24 09:52:27;;;;;;;5.13;4.73;;;12.20;28.70;;;;;;11146881;26;21092;-71
2024/04/24 09:57:35;;;;;;;4.83;4.43;;;12.20;28.40;;;;;;11131458;26;20255;-71
2024/04/24 10:02:42;;;;;;;4.20;3.90;;;12.10;28.60;;;;;;11155754;26;20255;-70
2024/04/24 10:07:55;;;;;;;4.30;3.90;;;12.00;28.40;;;;;;11163807;26;20625;-70
2024/04/24 10:13:01;;;;;;;3.83;3.53;;;12.00;28.40;;;;;;11151667;26;20657;-70
2024/04/24 10:18:06;;;;;;;4.40;4.10;;;12.10;29.70;;;;;;11160440;26;20288;-71
2024/04/24 10:23:16;;;;;;;4.03;3.63;;;12.30;29.30;;;;;;11150736;26;20265;-71
2024/04/24 10:28:23;;;;;;;4.23;3.93;;;12.60;29.00;;;;;;11133183;26;20497;-70
2024/04/24 10:33:30;;;;;;;4.00;3.70;;;12.90;28.80;;;;;;11157119;26;20325;-71
2024/04/24 10:38:38;;;;;;;3.80;3.50;;;13.00;28.10;;;;;;11159731;26;21024;-70
2024/04/24 10:43:44;;;;;;;3.80;3.50;;;12.90;27.80;;;;;;11154427;26;20403;-70
2024/04/24 10:48:58;;;;;;;4.10;3.80;;;12.80;28.70;;;;;;11154327;26;20290;-71
2024/04/24 10:54:17;;;;;;;4.27;3.43;;;12.80;26.60;;;;;;11148763;26;20254;-71
2024/04/24 10:59:32;;;;;;;4.03;3.63;;;12.80;26.00;;;;;;11126328;26;20300;-71
2024/04/24 11:04:39;;;;;;;3.00;2.80;;;12.90;26.90;;;;;;11127021;26;20260;-71
2024/04/24 11:09:47;;;;;;;5.70;5.20;;;12.90;26.80;;;;;;11134867;26;20790;-71
2024/04/24 11:14:53;;;;;;;4.23;3.87;;;12.90;26.70;;;;;;11130447;26;20258;-71
2024/04/24 11:19:58;;;;;;;4.37;3.57;;;12.90;27.30;;;;;;11114213;26;20262;-71
2024/04/24 11:25:13;;;;;;;3.47;3.27;;;13.00;27.30;;;;;;11105526;26;20285;-71
2024/04/24 11:30:21;;;;;;;5.47;4.70;;;13.10;25.00;;;;;;11135013;26;20360;-71
2024/04/24 11:35:27;;;;;;;5.20;4.80;;;13.10;26.50;;;;;;11124304;26;20309;-71
2024/04/24 11:40:35;;;;;;;5.13;4.70;;;13.00;26.90;;;;;;11126731;26;20271;-71
2024/04/24 11:45:40;;;;;;;4.80;4.40;;;13.00;26.60;;;;;;11130915;26;20318;-71
2024/04/24 11:50:45;;;;;;;5.43;4.50;;;12.90;27.20;;;;;;11106828;26;20263;-71
2024/04/24 11:55:53;;;;;;;5.10;4.70;;;12.90;27.00;;;;;;11118690;26;20885;-71
2024/04/24 12:01:00;;;;;;;4.97;4.57;;;12.90;26.00;;;;;;11144254;26;20379;-71
2024/04/24 12:06:06;;;;;;;5.57;5.07;;;12.90;26.60;;;;;;11132993;26;20254;-71
2024/04/24 12:11:15;;;;;;;5.27;4.57;;;12.90;26.30;;;;;;11137934;26;20289;-71
2024/04/24 12:16:22;;;;;;;6.50;5.40;;;12.90;26.00;;;;;;11134442;26;20254;-71
2024/04/24 12:21:27;;;;;;;5.60;5.13;;;12.90;26.20;;;;;;11135509;26;20752;-71
2024/04/24 12:26:35;;;;;;;5.63;5.13;;;12.90;26.40;;;;;;11146862;26;20608;-70
2024/04/24 12:31:40;;;;;;;5.10;4.70;;;12.90;26.00;;;;;;11142443;26;20270;-71
2024/04/24 12:36:45;;;;;;;5.63;5.13;;;12.90;26.90;;;;;;11123822;26;20891;-70
2024/04/24 12:41:53;;;;;;;5.67;5.17;;;12.90;26.60;;;;;;11135181;26;20310;-70
2024/04/24 12:46:58;;;;;;;6.20;5.57;;;12.90;25.70;;;;;;11137775;26;20360;-70
2024/04/24 12:52:04;;;;;;;6.43;5.23;;;12.90;26.30;;;;;;11131657;26;20318;-71
2024/04/24 12:57:12;;;;;;;5.07;4.67;;;12.80;26.60;;;;;;11135240;26;20852;-70
2024/04/24 13:02:17;;;;;;;6.90;6.30;;;12.70;26.00;;;;;;11130837;26;20297;-71
2024/04/24 13:07:22;;;;;;;7.07;6.47;;;12.70;26.70;;;;;;11128905;26;20290;-71
2024/04/24 13:12:30;;;;;;;7.93;7.20;;;12.60;26.90;;;;;;11132489;26;21690;-71
2024/04/24 13:17:36;;;;;;;7.60;7.00;;;12.50;26.40;;;;;;11130130;26;20260;-71
2024/04/24 13:22:41;;;;;;;7.03;6.43;;;12.40;26.70;;;;;;11122849;26;20310;-70
2024/04/24 13:27:49;;;;;;;8.13;7.33;;;12.20;27.00;;;;;;11123461;26;20266;-70
2024/04/24 13:32:54;;;;;;;6.50;6.00;;;12.20;26.70;;;;;;11135186;26;20259;-72
2024/04/24 13:38:00;;;;;;;6.50;5.90;;;12.10;27.10;;;;;;11125667;26;20315;-73
2024/04/24 13:43:07;;;;;;;6.90;6.30;;;12.00;27.70;;;;;;11122526;26;20267;-71
2024/04/24 13:48:13;;;;;;;6.97;6.37;;;12.00;27.20;;;;;;11130897;26;21123;-71
2024/04/24 13:53:18;;;;;;;6.80;6.30;;;11.90;27.70;;;;;;11131754;26;20806;-71
2024/04/24 13:58:27;;;;;;;8.37;6.80;;;11.80;28.10;;;;;;11118833;26;20724;-71
2024/04/24 14:03:32;;;;;;;7.10;6.50;;;11.80;27.60;;;;;;11123252;26;20821;-71
2024/04/24 14:08:37;;;;;;;6.43;5.83;;;11.80;28.00;;;;;;11132817;26;20263;-71
2024/04/24 14:13:45;;;;;;;7.10;6.53;;;11.80;28.20;;;;;;11124669;26;20266;-71
2024/04/24 14:18:50;;;;;;;7.87;6.90;;;11.60;28.70;;;;;;11140030;26;20309;-72
2024/04/24 14:23:55;;;;;;;7.40;6.80;;;11.40;29.20;;;;;;11104441;26;20260;-72
2024/04/24 14:29:02;;;;;;;7.40;6.70;;;11.20;29.30;;;;;;11132084;26;20270;-73
2024/04/24 14:34:08;;;;;;;7.30;6.70;;;11.10;30.20;;;;;;11128841;26;20285;-71
2024/04/24 14:39:13;;;;;;;6.33;5.83;;;11.00;30.00;;;;;;11135487;26;21168;-71
2024/04/24 14:44:20;;;;;;;6.57;5.97;;;10.80;30.20;;;;;;11125461;26;20253;-71
2024/04/24 14:49:27;;;;;;;6.50;6.00;;;10.70;31.10;;;;;;11130726;26;20409;-71
2024/04/24 14:54:32;;;;;;;5.43;4.93;;;10.70;30.90;;;;;;11096257;26;20266;-71
2024/04/24 14:59:40;;;;;;;4.90;4.60;;;10.70;30.80;;;;;;11108006;26;20333;-71
2024/04/24 15:04:45;;;;;;;5.00;4.60;;;10.70;31.20;;;;;;11122274;26;20304;-71
2024/04/24 15:09:50;;;;;;;5.17;4.67;;;10.80;30.80;;;;;;11128851;26;20892;-71
2024/04/24 15:14:57;;;;;;;5.43;4.93;;;10.80;30.90;;;;;;11130111;26;20262;-71
2024/04/24 15:20:02;;;;;;;5.43;4.93;;;10.90;31.20;;;;;;11125751;26;20297;-70
2024/04/24 15:25:08;;;;;;;5.50;5.10;;;10.90;30.70;;;;;;11116376;26;20262;-70
2024/04/24 15:30:19;;;;;;;5.53;5.10;;;10.90;31.10;;;;;;11119298;26;20321;-70
2024/04/24 15:35:24;;;;;;;5.23;4.83;;;10.90;31.30;;;;;;11129675;26;20311;-70
2024/04/24 15:40:29;;;;;;;5.50;5.10;;;11.00;31.60;;;;;;11119806;26;20255;-70
2024/04/24 15:45:36;;;;;;;4.70;4.30;;;11.20;30.90;;;;;;11120133;26;20258;-70
2024/04/24 15:50:45;;;;;;;4.33;4.03;;;11.30;30.90;;;;;;11121154;26;20305;-70
2024/04/24 15:55:51;;;;;;;4.93;4.47;;;11.30;30.30;;;;;;11126478;26;20312;-70
2024/04/24 16:00:58;;;;;;;4.30;4.00;;;11.40;30.40;;;;;;11137043;26;20258;-70
2024/04/24 16:06:03;;;;;;;4.63;4.27;;;11.40;30.50;;;;;;11121402;26;20270;-70
2024/04/24 16:11:08;;;;;;;4.20;3.90;;;11.40;30.10;;;;;;11121920;26;20262;-70
2024/04/24 16:16:18;;;;;;;2.90;2.70;;;11.40;29.90;;;;;;11118256;26;20316;-70
2024/04/24 16:21:25;;;;;;;2.80;2.50;;;11.40;29.70;;;;;;11124916;26;20443;-70
2024/04/24 16:26:30;;;;;;;2.00;1.90;;;11.30;29.90;;;;;;11123522;26;20297;-71
2024/04/24 16:31:37;;;;;;;2.50;2.30;;;11.20;30.00;;;;;;11126897;26;20260;-71
2024/04/24 16:36:43;;;;;;;2.30;2.20;;;11.20;30.00;;;;;;11134255;26;20297;-70
2024/04/24 16:41:47;;;;;;;3.00;2.50;;;11.20;30.00;;;;;;11133373;26;20259;-71
2024/04/24 16:46:57;;;;;;;2.63;2.43;;;11.20;30.00;;;;;;11134555;26;20277;-71
2024/04/24 16:52:07;;;;;;;2.80;2.60;;;11.20;30.30;;;;;;11141954;26;20254;-71
2024/04/24 16:57:12;;;;;;;3.00;2.80;;;11.20;30.20;;;;;;11121093;26;20717;-71
2024/04/24 17:02:20;;;;;;;2.70;2.50;;;11.30;30.20;;;;;;11133639;26;20375;-71
2024/04/24 17:07:25;;;;;;;3.20;3.00;;;11.30;30.50;;;;;;11132224;26;20263;-71
2024/04/24 17:12:30;;;;;;;3.10;2.90;;;11.40;30.30;;;;;;11144977;26;20285;-71
2024/04/24 17:17:38;;;;;;;1.97;1.77;;;11.30;30.20;;;;;;11143743;26;20292;-70
2024/04/24 17:22:43;;;;;;;1.60;1.50;;;11.00;30.10;;;;;;11145001;26;20309;-72
2024/04/24 17:27:50;;;;;;;1.80;1.70;;;10.50;30.00;;;;;;11145863;26;20260;-72
2024/04/24 17:32:58;;;;;;;1.80;1.70;;;10.00;30.50;;;;;;11145363;26;20259;-72
2024/04/24 17:38:03;;;;;;;1.73;1.63;;;9.60;32.30;;;;;;11146533;26;20254;-72
2024/04/24 17:43:08;;;;;;;2.00;1.80;;;9.30;32.20;;;;;;11148047;26;20493;-72
2024/04/24 17:48:16;;;;;;;2.17;1.97;;;9.10;32.50;;;;;;11144994;26;20304;-72
2024/04/24 17:53:21;;;;;;;2.00;1.90;;;9.00;33.10;;;;;;11143452;26;20258;-72
2024/04/24 17:58:28;;;;;;;2.60;2.37;;;8.80;32.90;;;;;;11141901;26;20296;-72
2024/04/24 18:03:36;;;;;;;5.47;3.63;;;8.70;33.30;;;;;;11141431;26;20260;-72
2024/04/24 18:08:41;;;;;;;5.03;3.17;;;8.60;33.90;;;;;;11143000;26;20255;-71
2024/04/24 18:13:46;;;;;;;8.33;6.40;;;8.50;33.60;;;;;;11140647;26;20309;-71
2024/04/24 18:18:56;;;;;;;5.67;5.00;;;8.40;33.50;;;;;;11139232;26;20255;-72
2024/04/24 18:24:02;;;;;;;3.60;3.30;;;8.30;34.60;;;;;;11149504;26;20300;-71
2024/04/24 18:29:06;;;;;;;3.63;3.40;;;8.40;34.20;;;;;;11143020;26;20262;-71
2024/04/24 18:34:14;;;;;;;3.57;3.27;;;8.50;34.30;;;;;;11126537;26;20638;-72
2024/04/24 18:39:20;;;;;;;4.67;4.27;;;8.60;34.60;;;;;;11141162;26;20266;-72
2024/04/24 18:44:25;;;;;;;5.70;5.20;;;8.70;34.20;;;;;;11131267;26;20261;-72
2024/04/24 18:49:32;;;;;;;5.30;4.80;;;8.70;33.90;;;;;;11148279;26;20297;-72
2024/04/24 18:54:39;;;;;;;4.97;4.53;;;8.70;34.40;;;;;;11137480;26;21161;-71
2024/04/24 18:59:44;;;;;;;4.30;4.00;;;8.90;33.90;;;;;;11142220;26;20314;-72
2024/04/24 19:04:52;;;;;;;3.83;3.43;;;8.90;33.90;;;;;;11136950;26;20263;-72
2024/04/24 19:09:57;;;;;;;4.30;3.90;;;8.90;34.20;;;;;;11146276;26;20301;-72
2024/04/24 19:15:02;;;;;;;4.47;4.07;;;8.90;33.80;;;;;;11125618;26;20310;-72
2024/04/24 19:20:11;;;;;;;5.47;5.00;;;8.80;33.70;;;;;;11108925;26;20385;-72
2024/04/24 19:25:16;;;;;;;4.93;4.43;;;8.80;34.20;;;;;;11128261;26;20261;-72
2024/04/24 19:30:21;;;;;;;3.40;3.10;;;8.80;33.80;;;;;;11142279;26;21139;-72
2024/04/24 19:35:29;;;;;;;3.37;3.10;;;8.70;33.70;;;;;;11131319;26;20247;-71
2024/04/24 19:40:35;;;;;;;3.07;2.87;;;8.70;34.20;;;;;;11140023;26;20301;-72
2024/04/24 19:45:40;;;;;;;3.30;3.00;;;8.60;33.70;;;;;;11135501;26;20258;-72
2024/04/24 19:50:48;;;;;;;4.43;4.13;;;8.60;33.70;;;;;;11136946;26;20314;-72
2024/04/24 19:55:54;;;;;;;4.23;3.90;;;8.50;33.80;;;;;;11134082;26;20313;-72
2024/04/24 20:01:00;;;;;;;4.97;4.57;;;8.40;33.50;;;;;;11139381;26;20280;-72
2024/04/24 20:06:09;;;;;;;4.53;4.23;;;8.20;33.70;;;;;;11104847;26;20259;-72
2024/04/24 20:11:14;;;;;;;4.77;4.30;;;8.10;34.60;;;;;;11132830;26;20667;-72
2024/04/24 20:16:19;;;;;;;25.13;18.47;;;8.10;34.30;;;;;;11137972;26;20261;-72
2024/04/24 20:21:27;;;;;;;13.93;11.17;;;8.00;34.40;;;;;;11129718;26;20692;-72
2024/04/24 20:26:32;;;;;;;6.13;5.53;;;7.90;35.00;;;;;;11130598;26;20729;-72
2024/04/24 20:31:38;;;;;;;5.97;5.47;;;7.80;34.60;;;;;;11134906;26;20297;-72
2024/04/24 20:36:46;;;;;;;7.07;6.43;;;7.70;34.90;;;;;;11124600;26;20694;-72
2024/04/24 20:41:50;;;;;;;5.37;4.97;;;7.60;35.70;;;;;;11117801;26;20335;-72
2024/04/24 20:46:55;;;;;;;5.30;4.80;;;7.60;35.20;;;;;;11129620;26;20250;-72
2024/04/24 20:52:03;;;;;;;5.00;4.60;;;7.60;35.30;;;;;;11127018;26;20262;-72
2024/04/24 20:57:08;;;;;;;4.10;3.80;;;7.50;35.80;;;;;;11141139;26;20260;-71
2024/04/24 21:02:13;;;;;;;4.03;3.73;;;7.50;35.30;;;;;;11143503;26;20302;-72
2024/04/24 21:07:21;;;;;;;4.07;3.77;;;7.50;35.30;;;;;;11143094;26;21074;-72
2024/04/24 21:12:27;;;;;;;4.60;4.30;;;7.50;36.10;;;;;;11131494;26;20264;-72
2024/04/24 21:17:32;;;;;;;3.73;3.50;;;7.60;35.50;;;;;;11141226;26;20305;-72
2024/04/24 21:22:41;;;;;;;4.33;4.03;;;7.70;35.40;;;;;;11123989;26;20636;-73
2024/04/24 21:27:46;;;;;;;3.80;3.50;;;7.70;35.70;;;;;;11126085;26;20267;-72
2024/04/24 21:32:51;;;;;;;3.63;3.33;;;7.70;35.00;;;;;;11142901;26;20293;-72
2024/04/24 21:37:58;;;;;;;6.87;6.37;;;7.70;35.20;;;;;;11138428;26;20251;-71
2024/04/24 21:43:04;;;;;;;4.40;4.10;;;7.70;35.90;;;;;;11142062;26;20262;-71
2024/04/24 21:48:09;;;;;;;3.53;3.30;;;7.70;35.20;;;;;;11138400;26;20275;-72
2024/04/24 21:53:17;;;;;;;3.17;2.87;;;7.70;35.00;;;;;;11142803;26;20262;-71
2024/04/24 21:58:23;;;;;;;2.70;2.50;;;7.60;35.50;;;;;;11134607;26;20335;-72
2024/04/24 22:03:31;;;;;;;2.30;2.10;;;7.50;35.00;;;;;;11145978;26;20363;-71
2024/04/24 22:08:39;;;;;;;2.43;1.93;;;7.40;35.40;;;;;;11140732;26;20658;-71
2024/04/24 22:13:44;;;;;;;1.77;1.67;;;7.30;35.70;;;;;;11144264;26;21151;-72
2024/04/24 22:18:50;;;;;;;1.30;1.27;;;7.20;35.30;;;;;;11131060;26;20263;-71
2024/04/24 22:23:57;;;;;;;1.30;1.30;;;7.10;35.50;;;;;;11138035;26;20791;-71
2024/04/24 22:29:02;;;;;;;3.20;2.90;;;7.00;36.10;;;;;;11144653;26;20280;-71
2024/04/24 22:34:07;;;;;;;1.93;1.83;;;7.00;35.90;;;;;;11133277;26;20350;-71
2024/04/24 22:39:16;;;;;;;2.00;1.33;;;6.80;36.00;;;;;;11131396;26;20262;-71
2024/04/24 22:44:21;;;;;;;1.60;1.40;;;6.70;36.50;;;;;;11133768;26;20882;-71
2024/04/24 22:49:26;;;;;;;1.60;1.50;;;6.70;36.10;;;;;;11136124;26;20834;-71
2024/04/24 22:54:34;;;;;;;1.50;1.40;;;6.60;36.10;;;;;;11132422;26;20657;-71
2024/04/24 22:59:39;;;;;;;1.20;1.10;;;6.60;36.70;;;;;;11128235;26;20301;-71
2024/04/24 23:04:44;;;;;;;3.80;2.90;;;6.50;36.20;;;;;;11137004;26;20250;-71
2024/04/24 23:09:51;;;;;;;1.73;1.60;;;6.50;36.40;;;;;;11129765;26;20258;-71
2024/04/24 23:14:56;;;;;;;1.63;1.53;;;6.40;37.00;;;;;;11136065;26;20259;-71
2024/04/24 23:20:01;;;;;;;1.53;1.43;;;6.40;36.70;;;;;;11136418;26;20300;-71
2024/04/24 23:25:09;;;;;;;1.90;1.60;;;6.40;36.90;;;;;;11124537;26;20267;-71
2024/04/24 23:30:14;;;;;;;1.60;1.50;;;6.40;37.90;;;;;;11129812;26;20301;-71
2024/04/24 23:35:19;;;;;;;2.00;1.77;;;6.30;37.20;;;;;;11122796;26;20267;-71
2024/04/24 23:40:27;;;;;;;2.10;1.90;;;6.30;37.30;;;;;;11125448;26;20271;-71
2024/04/24 23:45:33;;;;;;;2.03;1.93;;;6.30;37.80;;;;;;11130132;26;20262;-71
2024/04/24 23:50:38;;;;;;;2.33;2.23;;;6.40;37.60;;;;;;11131661;26;20258;-72
2024/04/24 23:55:46;;;;;;;2.47;2.20;;;6.40;37.90;;;;;;11134756;26;20258;-71
